Wednesday, January 17, 2018, 4:52 PM EST
Back to Local

KEWN, New Bern, Craven County Regional Airport

Location: New Bern, NC, United States Lat: 35.068
Local Time: 4:52 PM EST (21:52 GMT) Lon: -77.047
Time Zone: US/Eastern Elev: 16 ft

Show me the last for .
Show Decoded

2018-01-17 15:54 METAR KEWN 172054Z 02014KT 10SM BKN100 06/01 A3016 RMK AO2 SLP212 T00560006
                 55006 =
2018-01-17 14:54 METAR KEWN 171954Z 02010KT 10SM SCT060 07/01 A3016 RMK AO2 SLP212 T00720006 =
2018-01-17 13:54 METAR KEWN 171854Z 04009KT 10SM CLR 08/M01 A3015 RMK AO2 SLP210 T00831006 =
2018-01-17 12:54 METAR KEWN 171754Z 04010KT 10SM CLR 09/00 A3018 RMK AO2 SLP219 T00890000 10106
                 21039 58033 =
2018-01-17 11:54 METAR KEWN 171654Z 07007KT 10SM CLR 10/M01 A3022 RMK AO2 SLP233 T01001011 =
2018-01-17 10:54 METAR KEWN 171554Z 04007KT 10SM CLR 08/00 A3026 RMK AO2 SLP245 T00830000 =
2018-01-17 09:54 METAR KEWN 171454Z 04004KT 10SM CLR 06/01 A3028 RMK AO2 SLP252 T00560011 51000 =
2018-01-17 08:54 METAR KEWN 171354Z 00000KT 6SM BR CLR 00/M01 A3028 RMK AO2 SLP252 T00001006 =
2018-01-17 07:54 METAR KEWN 171254Z 00000KT 8SM CLR M02/M02 A3029 RMK AO2 SLP255 T10221022 =
2018-01-17 07:33 METAR KEWN 171233Z 00000KT 8SM CLR M03/M03 A3028 RMK AO2 T10281033 =
2018-01-17 07:26 METAR KEWN 171226Z 00000KT 2 1/2SM BR CLR M03/M04 A3028 RMK AO2 VIS 1 3/4V5
                 T10331039 =
2018-01-17 06:54 METAR KEWN 171154Z 00000KT 8SM CLR M03/M03 A3028 RMK AO2 SLP251 T10281028 11006
                 21033 55003 =
2018-01-17 06:42 METAR KEWN 171142Z 17003KT 8SM CLR M02/M03 A3027 RMK AO2 T10221028 =
2018-01-17 06:35 METAR KEWN 171135Z 00000KT 2 1/2SM BR CLR M02/M03 A3027 RMK AO2 T10221028 =
2018-01-17 06:25 METAR KEWN 171125Z 00000KT 3/4SM BR CLR M02/M02 A3026 RMK AO2 T10171022 =
2018-01-17 05:54 METAR KEWN 171054Z 00000KT 7SM CLR M02/M02 A3027 RMK AO2 SLP250 T10171022 =
2018-01-17 04:54 METAR KEWN 170954Z AUTO 00000KT 3SM BR CLR M02/M03 A3028 RMK AO2 SLP253
                 T10221028 =
2018-01-17 03:54 METAR KEWN 170854Z AUTO 00000KT 9SM CLR M02/M03 A3028 RMK AO2 SLP254 T10221028
                 58006 =
2018-01-17 02:54 METAR KEWN 170754Z AUTO 00000KT 10SM CLR M02/M02 A3030 RMK AO2 SLP259 T10171022
                 =
2018-01-17 01:54 METAR KEWN 170654Z AUTO 00000KT 10SM CLR M02/M03 A3029 RMK AO2 SLP258 T10221028
                 =
2018-01-17 00:54 METAR KEWN 170554Z AUTO 00000KT 10SM CLR M01/M02 A3030 RMK AO2 SLP261 T10111022
                 10039 21017 58018 =
2018-01-16 23:54 METAR KEWN 170454Z AUTO 19003KT 10SM CLR M01/M02 A3032 RMK AO2 SLP267 T10061017
                 401111028 =
2018-01-16 22:54 METAR KEWN 170354Z AUTO 16003KT 10SM CLR M01/M02 A3035 RMK AO2 SLP277 T10111017
                 =
2018-01-16 21:54 METAR KEWN 170254Z AUTO 00000KT 10SM CLR 01/M01 A3036 RMK AO2 SLP279 T00111011
                 58004 =
2018-01-16 20:54 METAR KEWN 170154Z 15003KT 10SM CLR 02/M01 A3036 RMK AO2 SLP280 T00171006 =
2018-01-16 19:54 METAR KEWN 170054Z 00000KT 10SM CLR 02/M01 A3037 RMK AO2 SLP283 T00221006 =
2018-01-16 18:54 METAR KEWN 162354Z 00000KT 10SM CLR 04/00 A3037 RMK AO2 SLP283 T00390000 10111
                 20033 50003 =
2018-01-16 17:54 METAR KEWN 162254Z 00000KT 10SM CLR 06/M01 A3037 RMK AO2 SLP285 T00561006 =
2018-01-16 16:54 METAR KEWN 162154Z 31004KT 10SM CLR 08/M01 A3036 RMK AO2 SLP279 T00831006 =

Support USWX by starting your Amazon purchase here.